Main page
METAR-TAF:

METAR-TAF

Airports :

RAF Benson

Benson, England

latitude: 51-37N, longitude: 001-05W, elevation: 63 m

Current weather observation

The report was made 1 hour and 4 minutes ago, at 21:50 UTC
Wind 13 kt from the East
Temperature 5°C
Humidity 100%
Pressure 997 hPa
Visibility: 5000 m

METAR: EGUB 212150Z AUTO 10013KT 5000 // SCT032/// BKN050/// BKN100/// 05/05 Q0997

Time: 22:54 (22:54 UTC)

Forecast

The report was made 6 hours and 10 minutes ago, at 16:44 UTC
Forecast valid from 21 at 18 UTC to 21 at 22 UTC
Wind 10 kt from the East
Visibility: 6000 m
Broken clouds at a height of 900 ft
haze
Probability 40% :
Temporary
from 21 at 18 UTC to 21 at 22 UTC
Visibility: 3000 m
Broken clouds at a height of 500 ft
light rain, drizzle

TAF: EGUB 211644Z 2118/2122 09010KT 6000 HZ BKN009 PROB40 TEMPO 2118/2122 3000 -RADZ BKN005

Weather observations and forecasts of more than 4000 airports (METAR and TAF reports).

The available stations are represented by yellow and red dots on the map.

Hover mouse over dot to see the name of the station.

Then click to see weather observations and forecasts.

To change the map : click on the green buttons with a black cross to zoom in, on the green button with a dash to zoom out, or on the green arrows for adjacent maps.


METAR-TAF: